sensor_id;sensor_type;location;lat;lon;timestamp;pressure;altitude;pressure_sealevel;temperature;humidity
14117;BME280;7137;51.436;6.544;2023-02-04T00:00:13;102754.78;;;8.52;93.07
14117;BME280;7137;51.436;6.544;2023-02-04T00:03:15;102767.81;;;8.55;93.37
14117;BME280;7137;51.436;6.544;2023-02-04T00:06:17;102763.72;;;8.77;92.59
14117;BME280;7137;51.436;6.544;2023-02-04T00:09:20;102763.72;;;8.79;91.92
14117;BME280;7137;51.436;6.544;2023-02-04T00:12:23;102773.25;;;8.75;91.04
14117;BME280;7137;51.436;6.544;2023-02-04T00:15:24;102779.34;;;8.76;92.04
14117;BME280;7137;51.436;6.544;2023-02-04T00:18:27;102776.88;;;8.94;91.21
14117;BME280;7137;51.436;6.544;2023-02-04T00:21:28;102779.53;;;8.99;90.49
14117;BME280;7137;51.436;6.544;2023-02-04T00:24:31;102785.72;;;9.11;89.20
14117;BME280;7137;51.436;6.544;2023-02-04T00:27:33;102791.75;;;9.03;89.86
14117;BME280;7137;51.436;6.544;2023-02-04T00:30:34;102788.31;;;9.10;88.70
14117;BME280;7137;51.436;6.544;2023-02-04T00:33:36;102783.00;;;8.99;89.75
14117;BME280;7137;51.436;6.544;2023-02-04T00:36:37;102784.72;;;8.96;89.69
14117;BME280;7137;51.436;6.544;2023-02-04T00:39:40;102780.38;;;8.96;89.46
14117;BME280;7137;51.436;6.544;2023-02-04T00:42:43;102778.56;;;8.87;89.84
14117;BME280;7137;51.436;6.544;2023-02-04T00:45:44;102773.25;;;8.74;90.54
14117;BME280;7137;51.436;6.544;2023-02-04T00:48:46;102787.88;;;8.62;90.73
14117;BME280;7137;51.436;6.544;2023-02-04T00:51:48;102787.81;;;8.58;90.63
14117;BME280;7137;51.436;6.544;2023-02-04T00:54:51;102792.25;;;8.67;91.22
14117;BME280;7137;51.436;6.544;2023-02-04T00:57:53;102787.88;;;8.61;91.17
14117;BME280;7137;51.436;6.544;2023-02-04T01:00:54;102799.28;;;8.74;91.04
14117;BME280;7137;51.436;6.544;2023-02-04T01:03:56;102803.66;;;8.75;90.58
14117;BME280;7137;51.436;6.544;2023-02-04T01:06:58;102794.25;;;8.92;90.29
14117;BME280;7137;51.436;6.544;2023-02-04T01:10:00;102796.00;;;8.93;89.24
14117;BME280;7137;51.436;6.544;2023-02-04T01:13:02;102807.13;;;8.75;90.08
14117;BME280;7137;51.436;6.544;2023-02-04T01:16:04;102801.97;;;8.81;90.14
14117;BME280;7137;51.436;6.544;2023-02-04T01:19:06;102808.84;;;8.73;89.57
14117;BME280;7137;51.436;6.544;2023-02-04T01:22:08;102805.31;;;8.71;90.33
14117;BME280;7137;51.436;6.544;2023-02-04T01:25:10;102807.03;;;8.68;91.04
14117;BME280;7137;51.436;6.544;2023-02-04T01:28:12;102798.22;;;8.56;90.73
14117;BME280;7137;51.436;6.544;2023-02-04T01:31:14;102812.88;;;8.45;91.66
14117;BME280;7137;51.436;6.544;2023-02-04T01:34:15;102819.03;;;8.52;91.16
14117;BME280;7137;51.436;6.544;2023-02-04T01:37:17;102816.41;;;8.50;90.29
14117;BME280;7137;51.436;6.544;2023-02-04T01:40:20;102825.09;;;8.51;91.25
14117;BME280;7137;51.436;6.544;2023-02-04T01:43:22;102825.84;;;8.44;91.32
14117;BME280;7137;51.436;6.544;2023-02-04T01:46:24;102826.81;;;8.49;90.79
14117;BME280;7137;51.436;6.544;2023-02-04T01:49:26;102832.00;;;8.46;90.72
14117;BME280;7137;51.436;6.544;2023-02-04T01:52:35;102834.59;;;8.47;90.58
14117;BME280;7137;51.436;6.544;2023-02-04T01:55:39;102832.94;;;8.54;90.52
14117;BME280;7137;51.436;6.544;2023-02-04T01:58:40;102839.28;;;8.79;89.61
14117;BME280;7137;51.436;6.544;2023-02-04T02:01:44;102847.09;;;8.77;89.51
14117;BME280;7137;51.436;6.544;2023-02-04T02:04:46;102845.47;;;8.87;87.72
14117;BME280;7137;51.436;6.544;2023-02-04T02:07:48;102851.47;;;8.80;87.17
14117;BME280;7137;51.436;6.544;2023-02-04T02:10:52;102859.31;;;8.86;88.07
14117;BME280;7137;51.436;6.544;2023-02-04T02:13:54;102857.59;;;8.86;86.92
14117;BME280;7137;51.436;6.544;2023-02-04T02:16:55;102868.94;;;8.90;87.29
14117;BME280;7137;51.436;6.544;2023-02-04T02:19:57;102867.19;;;8.87;86.95
14117;BME280;7137;51.436;6.544;2023-02-04T02:23:04;102864.38;;;8.72;88.70
14117;BME280;7137;51.436;6.544;2023-02-04T02:26:08;102865.22;;;8.68;88.37
14117;BME280;7137;51.436;6.544;2023-02-04T02:29:10;102865.25;;;8.71;87.83
14117;BME280;7137;51.436;6.544;2023-02-04T02:32:13;102861.88;;;8.81;88.83
14117;BME280;7137;51.436;6.544;2023-02-04T02:35:15;102870.53;;;8.76;88.68
14117;BME280;7137;51.436;6.544;2023-02-04T02:38:18;102881.75;;;8.70;88.91
14117;BME280;7137;51.436;6.544;2023-02-04T02:41:21;102881.00;;;8.80;88.04
14117;BME280;7137;51.436;6.544;2023-02-04T02:44:23;102870.56;;;8.79;89.35
14117;BME280;7137;51.436;6.544;2023-02-04T02:47:26;102872.19;;;8.72;88.02
14117;BME280;7137;51.436;6.544;2023-02-04T02:50:30;102872.28;;;8.78;88.65
14117;BME280;7137;51.436;6.544;2023-02-04T02:53:32;102877.34;;;8.65;89.32
14117;BME280;7137;51.436;6.544;2023-02-04T02:56:35;102878.03;;;8.50;91.06
14117;BME280;7137;51.436;6.544;2023-02-04T02:59:36;102884.28;;;8.64;89.59
14117;BME280;7137;51.436;6.544;2023-02-04T03:02:38;102886.00;;;8.60;90.29
14117;BME280;7137;51.436;6.544;2023-02-04T03:05:41;102884.28;;;8.62;89.89
14117;BME280;7137;51.436;6.544;2023-02-04T03:08:43;102891.31;;;8.71;89.21
14117;BME280;7137;51.436;6.544;2023-02-04T03:11:46;102904.28;;;8.65;90.32
14117;BME280;7137;51.436;6.544;2023-02-04T03:14:48;102898.13;;;8.60;91.55
14117;BME280;7137;51.436;6.544;2023-02-04T03:17:50;102893.72;;;8.54;91.66
14117;BME280;7137;51.436;6.544;2023-02-04T03:20:56;102899.47;;;8.30;92.17
14117;BME280;7137;51.436;6.544;2023-02-04T03:23:58;102907.22;;;8.27;93.45
14117;BME280;7137;51.436;6.544;2023-02-04T03:27:01;102914.09;;;8.21;93.86
14117;BME280;7137;51.436;6.544;2023-02-04T03:30:03;102911.69;;;8.35;93.75
14117;BME280;7137;51.436;6.544;2023-02-04T03:33:05;102911.44;;;8.18;94.56
14117;BME280;7137;51.436;6.544;2023-02-04T03:36:07;102908.84;;;8.18;94.59
14117;BME280;7137;51.436;6.544;2023-02-04T03:43:53;102921.50;;;7.93;96.33
14117;BME280;7137;51.436;6.544;2023-02-04T03:46:55;102917.97;;;7.90;96.34
14117;BME280;7137;51.436;6.544;2023-02-04T03:49:57;102915.25;;;7.82;96.92
14117;BME280;7137;51.436;6.544;2023-02-04T03:52:58;102922.97;;;7.78;97.64
14117;BME280;7137;51.436;6.544;2023-02-04T03:56:00;102922.22;;;7.85;97.86
14117;BME280;7137;51.436;6.544;2023-02-04T03:59:02;102912.44;;;7.70;99.85
14117;BME280;7137;51.436;6.544;2023-02-04T04:02:05;102917.84;;;7.82;97.36
14117;BME280;7137;51.436;6.544;2023-02-04T04:05:07;102914.22;;;7.74;97.98
14117;BME280;7137;51.436;6.544;2023-02-04T04:08:09;102917.50;;;7.61;98.68
14117;BME280;7137;51.436;6.544;2023-02-04T04:11:11;102926.56;;;7.33;100.00
14117;BME280;7137;51.436;6.544;2023-02-04T04:14:14;102931.94;;;7.45;100.00
14117;BME280;7137;51.436;6.544;2023-02-04T04:17:15;102928.19;;;7.28;100.00
14117;BME280;7137;51.436;6.544;2023-02-04T04:20:17;102939.56;;;7.33;100.00
14117;BME280;7137;51.436;6.544;2023-02-04T04:23:18;102940.56;;;7.42;100.00
14117;BME280;7137;51.436;6.544;2023-02-04T04:26:20;102932.88;;;7.47;100.00
14117;BME280;7137;51.436;6.544;2023-02-04T04:29:23;102940.69;;;7.47;100.00
14117;BME280;7137;51.436;6.544;2023-02-04T04:32:25;102939.84;;;7.50;100.00
14117;BME280;7137;51.436;6.544;2023-02-04T04:35:27;102943.22;;;7.45;100.00
14117;BME280;7137;51.436;6.544;2023-02-04T04:38:28;102939.88;;;7.51;100.00
14117;BME280;7137;51.436;6.544;2023-02-04T04:41:29;102946.03;;;7.58;100.00
14117;BME280;7137;51.436;6.544;2023-02-04T04:44:32;102952.13;;;7.60;100.00
14117;BME280;7137;51.436;6.544;2023-02-04T04:47:34;102950.28;;;7.51;100.00
14117;BME280;7137;51.436;6.544;2023-02-04T04:50:35;102957.44;;;7.64;100.00
14117;BME280;7137;51.436;6.544;2023-02-04T04:53:37;102959.34;;;7.74;100.00
14117;BME280;7137;51.436;6.544;2023-02-04T04:56:38;102959.38;;;7.76;99.08
14117;BME280;7137;51.436;6.544;2023-02-04T04:59:41;102956.84;;;7.81;98.57
14117;BME280;7137;51.436;6.544;2023-02-04T05:02:44;102960.34;;;7.83;99.54
14117;BME280;7137;51.436;6.544;2023-02-04T05:05:45;102972.63;;;7.90;97.59
14117;BME280;7137;51.436;6.544;2023-02-04T05:08:47;102969.88;;;7.82;98.46
14117;BME280;7137;51.436;6.544;2023-02-04T05:11:48;102980.22;;;7.79;98.51
14117;BME280;7137;51.436;6.544;2023-02-04T05:14:51;102970.94;;;7.95;97.71
14117;BME280;7137;51.436;6.544;2023-02-04T05:17:53;102978.78;;;7.96;97.22
14117;BME280;7137;51.436;6.544;2023-02-04T05:20:54;102977.78;;;7.88;97.05
14117;BME280;7137;51.436;6.544;2023-02-04T05:23:56;102972.28;;;7.71;99.28
14117;BME280;7137;51.436;6.544;2023-02-04T05:26:57;102975.91;;;7.80;99.33
14117;BME280;7137;51.436;6.544;2023-02-04T05:30:01;102982.03;;;7.85;98.47
14117;BME280;7137;51.436;6.544;2023-02-04T05:33:02;102986.53;;;7.93;97.14
14117;BME280;7137;51.436;6.544;2023-02-04T05:36:04;102987.28;;;7.86;98.25
14117;BME280;7137;51.436;6.544;2023-02-04T05:39:05;102990.66;;;7.81;97.12
14117;BME280;7137;51.436;6.544;2023-02-04T05:42:07;102997.41;;;7.71;98.27
14117;BME280;7137;51.436;6.544;2023-02-04T05:45:13;103005.16;;;7.66;98.45
14117;BME280;7137;51.436;6.544;2023-02-04T05:48:15;103006.22;;;7.78;98.99
14117;BME280;7137;51.436;6.544;2023-02-04T05:51:17;103009.56;;;7.70;98.54
14117;BME280;7137;51.436;6.544;2023-02-04T05:54:18;103011.22;;;7.67;99.22
14117;BME280;7137;51.436;6.544;2023-02-04T05:57:20;103015.50;;;7.62;100.00
14117;BME280;7137;51.436;6.544;2023-02-04T06:00:23;103016.47;;;7.68;100.00
14117;BME280;7137;51.436;6.544;2023-02-04T06:03:24;103023.63;;;7.82;98.97
14117;BME280;7137;51.436;6.544;2023-02-04T06:06:26;103030.63;;;7.86;99.47
14117;BME280;7137;51.436;6.544;2023-02-04T06:09:27;103029.66;;;7.79;99.27
14117;BME280;7137;51.436;6.544;2023-02-04T06:12:29;103028.09;;;7.89;99.04
14117;BME280;7137;51.436;6.544;2023-02-04T06:15:31;103032.78;;;8.10;97.18
14117;BME280;7137;51.436;6.544;2023-02-04T06:18:33;103029.22;;;8.03;96.18
14117;BME280;7137;51.436;6.544;2023-02-04T06:21:34;103026.44;;;7.92;97.92
14117;BME280;7137;51.436;6.544;2023-02-04T06:24:36;103024.94;;;8.07;96.11
14117;BME280;7137;51.436;6.544;2023-02-04T06:27:37;103028.19;;;7.93;97.41
14117;BME280;7137;51.436;6.544;2023-02-04T06:30:40;103028.41;;;8.07;97.26
14117;BME280;7137;51.436;6.544;2023-02-04T06:33:43;103036.81;;;7.91;98.00
14117;BME280;7137;51.436;6.544;2023-02-04T06:36:45;103049.94;;;7.98;97.49
14117;BME280;7137;51.436;6.544;2023-02-04T06:39:46;103040.25;;;7.90;98.49
14117;BME280;7137;51.436;6.544;2023-02-04T06:42:48;103037.69;;;7.91;98.85
14117;BME280;7137;51.436;6.544;2023-02-04T06:45:51;103046.47;;;7.99;98.19
14117;BME280;7137;51.436;6.544;2023-02-04T06:48:52;103042.09;;;7.97;98.29
14117;BME280;7137;51.436;6.544;2023-02-04T06:51:55;103050.22;;;8.15;95.33
14117;BME280;7137;51.436;6.544;2023-02-04T06:54:56;103056.13;;;8.03;96.26
14117;BME280;7137;51.436;6.544;2023-02-04T06:57:58;103062.81;;;7.89;97.96
14117;BME280;7137;51.436;6.544;2023-02-04T07:01:00;103068.00;;;7.89;99.31
14117;BME280;7137;51.436;6.544;2023-02-04T07:04:02;103070.56;;;7.88;99.63
14117;BME280;7137;51.436;6.544;2023-02-04T07:07:03;103066.41;;;7.97;99.12
14117;BME280;7137;51.436;6.544;2023-02-04T07:10:05;103079.47;;;8.00;97.35
14117;BME280;7137;51.436;6.544;2023-02-04T07:13:07;103064.66;;;7.96;97.64
14117;BME280;7137;51.436;6.544;2023-02-04T07:16:09;103078.50;;;7.94;97.66
14117;BME280;7137;51.436;6.544;2023-02-04T07:19:11;103068.06;;;7.92;98.21
14117;BME280;7137;51.436;6.544;2023-02-04T07:22:13;103070.72;;;7.95;98.36
14117;BME280;7137;51.436;6.544;2023-02-04T07:25:15;103078.56;;;7.98;97.49
14117;BME280;7137;51.436;6.544;2023-02-04T07:28:17;103082.28;;;8.13;95.16
14117;BME280;7137;51.436;6.544;2023-02-04T07:31:20;103076.25;;;8.15;94.71
14117;BME280;7137;51.436;6.544;2023-02-04T07:34:21;103092.50;;;8.02;95.89
14117;BME280;7137;51.436;6.544;2023-02-04T07:37:23;103091.72;;;8.06;96.98
14117;BME280;7137;51.436;6.544;2023-02-04T07:40:24;103089.16;;;8.09;97.15
14117;BME280;7137;51.436;6.544;2023-02-04T07:43:26;103093.84;;;8.30;94.48
14117;BME280;7137;51.436;6.544;2023-02-04T07:46:29;103096.66;;;8.41;93.49
14117;BME280;7137;51.436;6.544;2023-02-04T07:49:31;103099.38;;;8.47;92.84
14117;BME280;7137;51.436;6.544;2023-02-04T07:52:33;103102.59;;;8.32;93.96
14117;BME280;7137;51.436;6.544;2023-02-04T07:55:34;103112.94;;;8.29;95.97
14117;BME280;7137;51.436;6.544;2023-02-04T07:58:36;103109.66;;;8.39;94.36
14117;BME280;7137;51.436;6.544;2023-02-04T08:01:39;103118.28;;;8.35;95.12
14117;BME280;7137;51.436;6.544;2023-02-04T08:04:40;103120.97;;;8.40;93.96
14117;BME280;7137;51.436;6.544;2023-02-04T08:07:42;103123.53;;;8.38;94.30
14117;BME280;7137;51.436;6.544;2023-02-04T08:10:43;103126.16;;;8.40;95.65
14117;BME280;7137;51.436;6.544;2023-02-04T08:13:45;103133.28;;;8.50;95.52
14117;BME280;7137;51.436;6.544;2023-02-04T08:16:48;103141.38;;;8.67;93.79
14117;BME280;7137;51.436;6.544;2023-02-04T08:19:50;103142.44;;;8.79;92.94
14117;BME280;7137;51.436;6.544;2023-02-04T08:22:52;103147.72;;;8.85;92.44
14117;BME280;7137;51.436;6.544;2023-02-04T08:25:53;103150.28;;;8.82;93.61
14117;BME280;7137;51.436;6.544;2023-02-04T08:28:55;103148.81;;;9.00;93.44
14117;BME280;7137;51.436;6.544;2023-02-04T08:31:59;103160.41;;;9.20;93.04
14117;BME280;7137;51.436;6.544;2023-02-04T08:35:00;103165.91;;;9.41;91.54
14117;BME280;7137;51.436;6.544;2023-02-04T08:38:02;103167.03;;;9.62;89.90
14117;BME280;7137;51.436;6.544;2023-02-04T08:41:03;103174.81;;;9.57;89.91
14117;BME280;7137;51.436;6.544;2023-02-04T08:44:05;103175.53;;;9.44;89.26
14117;BME280;7137;51.436;6.544;2023-02-04T08:47:08;103177.91;;;9.29;88.53
14117;BME280;7137;51.436;6.544;2023-02-04T08:50:10;103183.69;;;9.08;90.41
14117;BME280;7137;51.436;6.544;2023-02-04T08:53:12;103181.75;;;8.93;91.32
14117;BME280;7137;51.436;6.544;2023-02-04T08:56:14;103190.50;;;9.00;91.32
14117;BME280;7137;51.436;6.544;2023-02-04T08:59:18;103191.56;;;9.11;92.83
14117;BME280;7137;51.436;6.544;2023-02-04T09:02:22;103189.09;;;9.20;92.19
14117;BME280;7137;51.436;6.544;2023-02-04T09:05:23;103194.38;;;9.25;90.77
14117;BME280;7137;51.436;6.544;2023-02-04T09:08:25;103202.38;;;9.38;91.56
14117;BME280;7137;51.436;6.544;2023-02-04T09:11:27;103198.19;;;9.48;90.34
14117;BME280;7137;51.436;6.544;2023-02-04T09:14:28;103205.44;;;9.72;90.22
14117;BME280;7137;51.436;6.544;2023-02-04T09:17:31;103207.38;;;9.87;89.69
14117;BME280;7137;51.436;6.544;2023-02-04T09:20:33;103200.41;;;9.86;87.72
14117;BME280;7137;51.436;6.544;2023-02-04T09:23:36;103206.69;;;9.35;88.93
14117;BME280;7137;51.436;6.544;2023-02-04T09:26:37;103204.88;;;9.29;89.50
14117;BME280;7137;51.436;6.544;2023-02-04T09:29:39;103217.00;;;9.29;89.88
14117;BME280;7137;51.436;6.544;2023-02-04T09:32:43;103214.16;;;9.12;91.19
14117;BME280;7137;51.436;6.544;2023-02-04T09:35:44;103219.47;;;9.16;92.96
14117;BME280;7137;51.436;6.544;2023-02-04T09:38:46;103218.09;;;9.43;91.33
14117;BME280;7137;51.436;6.544;2023-02-04T09:41:48;103217.53;;;9.65;92.77
14117;BME280;7137;51.436;6.544;2023-02-04T09:44:53;103217.47;;;9.59;88.59
14117;BME280;7137;51.436;6.544;2023-02-04T09:47:57;103221.72;;;9.52;89.75
14117;BME280;7137;51.436;6.544;2023-02-04T09:51:03;103227.44;;;9.27;92.37
14117;BME280;7137;51.436;6.544;2023-02-04T09:54:10;103225.81;;;9.34;91.57
14117;BME280;7137;51.436;6.544;2023-02-04T09:57:14;103234.41;;;9.93;92.18
14117;BME280;7137;51.436;6.544;2023-02-04T10:00:20;103230.69;;;10.49;87.85
14117;BME280;7137;51.436;6.544;2023-02-04T10:03:23;103235.31;;;10.77;85.43
14117;BME280;7137;51.436;6.544;2023-02-04T10:06:24;103226.81;;;11.04;84.95
14117;BME280;7137;51.436;6.544;2023-02-04T10:09:26;103239.38;;;11.57;81.59
14117;BME280;7137;51.436;6.544;2023-02-04T10:12:28;103233.53;;;12.36;79.10
14117;BME280;7137;51.436;6.544;2023-02-04T10:15:32;103239.16;;;11.25;78.76
14117;BME280;7137;51.436;6.544;2023-02-04T10:18:35;103241.56;;;10.97;81.37
14117;BME280;7137;51.436;6.544;2023-02-04T10:21:38;103245.50;;;10.48;82.82
14117;BME280;7137;51.436;6.544;2023-02-04T10:24:40;103247.94;;;10.31;84.36
14117;BME280;7137;51.436;6.544;2023-02-04T10:27:49;103241.13;;;10.44;85.97
14117;BME280;7137;51.436;6.544;2023-02-04T10:30:51;103235.78;;;10.36;84.81
14117;BME280;7137;51.436;6.544;2023-02-04T10:34:06;103231.97;;;10.96;84.28
14117;BME280;7137;51.436;6.544;2023-02-04T10:37:13;103230.38;;;11.14;81.50
14117;BME280;7137;51.436;6.544;2023-02-04T10:40:25;103230.47;;;11.27;79.33
14117;BME280;7137;51.436;6.544;2023-02-04T10:43:28;103237.53;;;11.45;78.98
14117;BME280;7137;51.436;6.544;2023-02-04T10:46:30;103225.34;;;11.46;80.26
14117;BME280;7137;51.436;6.544;2023-02-04T10:49:33;103234.88;;;11.39;79.20
14117;BME280;7137;51.436;6.544;2023-02-04T10:52:37;103229.63;;;11.38;80.17
14117;BME280;7137;51.436;6.544;2023-02-04T10:55:39;103235.00;;;11.60;80.07
14117;BME280;7137;51.436;6.544;2023-02-04T10:58:41;103240.41;;;11.85;78.22
14117;BME280;7137;51.436;6.544;2023-02-04T11:01:43;103247.25;;;11.66;78.57
14117;BME280;7137;51.436;6.544;2023-02-04T11:04:46;103238.50;;;11.67;78.07
14117;BME280;7137;51.436;6.544;2023-02-04T11:07:48;103243.66;;;11.50;79.86
14117;BME280;7137;51.436;6.544;2023-02-04T11:10:54;103252.88;;;10.96;82.60
14117;BME280;7137;51.436;6.544;2023-02-04T11:13:59;103252.22;;;11.25;82.62
14117;BME280;7137;51.436;6.544;2023-02-04T11:17:03;103245.50;;;11.67;80.78
14117;BME280;7137;51.436;6.544;2023-02-04T11:20:29;103243.03;;;11.96;77.61
14117;BME280;7137;51.436;6.544;2023-02-04T11:23:34;103244.00;;;12.11;77.97
14117;BME280;7137;51.436;6.544;2023-02-04T11:26:37;103248.38;;;12.15;76.26
14117;BME280;7137;51.436;6.544;2023-02-04T11:29:39;103252.63;;;11.91;77.14
14117;BME280;7137;51.436;6.544;2023-02-04T11:32:43;103243.91;;;11.95;77.59
14117;BME280;7137;51.436;6.544;2023-02-04T11:35:59;103241.38;;;12.19;77.58
14117;BME280;7137;51.436;6.544;2023-02-04T11:39:10;103242.22;;;12.07;76.70
14117;BME280;7137;51.436;6.544;2023-02-04T11:42:21;103236.97;;;12.10;77.41
14117;BME280;7137;51.436;6.544;2023-02-04T11:45:27;103245.78;;;12.28;76.72
14117;BME280;7137;51.436;6.544;2023-02-04T11:48:28;103240.31;;;11.73;76.67
14117;BME280;7137;51.436;6.544;2023-02-04T11:51:32;103230.78;;;11.82;76.66
14117;BME280;7137;51.436;6.544;2023-02-04T11:54:34;103235.97;;;11.78;76.50
14117;BME280;7137;51.436;6.544;2023-02-04T11:57:37;103242.22;;;12.04;76.73
14117;BME280;7137;51.436;6.544;2023-02-04T12:00:40;103247.41;;;11.91;76.73
14117;BME280;7137;51.436;6.544;2023-02-04T12:03:45;103235.22;;;12.09;76.64
14117;BME280;7137;51.436;6.544;2023-02-04T12:06:58;103243.09;;;12.08;75.54
14117;BME280;7137;51.436;6.544;2023-02-04T12:10:10;103231.78;;;12.18;76.08
14117;BME280;7137;51.436;6.544;2023-02-04T12:13:16;103236.16;;;12.25;74.66
14117;BME280;7137;51.436;6.544;2023-02-04T12:16:18;103239.31;;;11.54;77.28
14117;BME280;7137;51.436;6.544;2023-02-04T12:19:20;103235.94;;;11.73;75.91
14117;BME280;7137;51.436;6.544;2023-02-04T12:22:23;103236.66;;;11.40;77.73
14117;BME280;7137;51.436;6.544;2023-02-04T12:25:25;103245.41;;;11.53;77.63
14117;BME280;7137;51.436;6.544;2023-02-04T12:28:27;103245.59;;;11.80;77.48
14117;BME280;7137;51.436;6.544;2023-02-04T12:31:29;103250.97;;;12.22;75.74
14117;BME280;7137;51.436;6.544;2023-02-04T12:34:30;103245.81;;;12.64;73.99
14117;BME280;7137;51.436;6.544;2023-02-04T12:37:33;103251.97;;;12.83;70.00
14117;BME280;7137;51.436;6.544;2023-02-04T12:40:35;103248.47;;;12.81;72.34
14117;BME280;7137;51.436;6.544;2023-02-04T12:43:36;103258.97;;;12.83;72.81
14117;BME280;7137;51.436;6.544;2023-02-04T12:46:38;103257.19;;;12.56;70.80
14117;BME280;7137;51.436;6.544;2023-02-04T12:49:39;103255.41;;;12.39;71.83
14117;BME280;7137;51.436;6.544;2023-02-04T12:52:42;103252.72;;;12.16;72.48
14117;BME280;7137;51.436;6.544;2023-02-04T12:55:44;103252.69;;;12.00;72.61
14117;BME280;7137;51.436;6.544;2023-02-04T12:58:45;103250.00;;;11.91;75.08
14117;BME280;7137;51.436;6.544;2023-02-04T13:01:47;103250.06;;;12.07;73.79
14117;BME280;7137;51.436;6.544;2023-02-04T13:04:48;103251.91;;;12.36;71.64
14117;BME280;7137;51.436;6.544;2023-02-04T13:07:52;103245.81;;;12.60;69.28
14117;BME280;7137;51.436;6.544;2023-02-04T13:10:53;103249.34;;;12.74;70.42
14117;BME280;7137;51.436;6.544;2023-02-04T13:13:55;103248.47;;;12.87;69.71
14117;BME280;7137;51.436;6.544;2023-02-04T13:16:56;103249.31;;;13.06;69.37
14117;BME280;7137;51.436;6.544;2023-02-04T13:19:58;103249.31;;;13.23;66.44
14117;BME280;7137;51.436;6.544;2023-02-04T13:23:01;103247.59;;;12.90;66.49
14117;BME280;7137;51.436;6.544;2023-02-04T13:26:03;103246.69;;;13.23;67.27
14117;BME280;7137;51.436;6.544;2023-02-04T13:29:05;103239.69;;;13.42;65.84
14117;BME280;7137;51.436;6.544;2023-02-04T13:32:08;103237.06;;;13.39;65.61
14117;BME280;7137;51.436;6.544;2023-02-04T13:35:10;103242.25;;;13.60;63.77
14117;BME280;7137;51.436;6.544;2023-02-04T13:38:13;103241.41;;;13.53;64.92
14117;BME280;7137;51.436;6.544;2023-02-04T13:41:15;103245.81;;;13.36;65.10
14117;BME280;7137;51.436;6.544;2023-02-04T13:44:16;103230.03;;;13.44;64.92
14117;BME280;7137;51.436;6.544;2023-02-04T13:47:18;103228.34;;;12.80;64.76
14117;BME280;7137;51.436;6.544;2023-02-04T13:50:19;103210.88;;;12.84;68.06
14117;BME280;7137;51.436;6.544;2023-02-04T13:53:22;103217.84;;;12.92;66.98
14117;BME280;7137;51.436;6.544;2023-02-04T13:56:25;103216.97;;;13.04;62.18
14117;BME280;7137;51.436;6.544;2023-02-04T13:59:27;103221.38;;;12.96;63.29
14117;BME280;7137;51.436;6.544;2023-02-04T14:02:29;103222.22;;;12.98;64.70
14117;BME280;7137;51.436;6.544;2023-02-04T14:05:31;103217.84;;;13.00;62.62
14117;BME280;7137;51.436;6.544;2023-02-04T14:08:34;103223.09;;;12.86;63.58
14117;BME280;7137;51.436;6.544;2023-02-04T14:11:35;103222.22;;;12.87;63.73
14117;BME280;7137;51.436;6.544;2023-02-04T14:14:37;103215.25;;;12.69;63.64
14117;BME280;7137;51.436;6.544;2023-02-04T14:17:38;103225.66;;;12.19;65.42
14117;BME280;7137;51.436;6.544;2023-02-04T14:20:40;103227.34;;;11.99;67.00
14117;BME280;7137;51.436;6.544;2023-02-04T14:23:43;103236.81;;;11.77;66.51
14117;BME280;7137;51.436;6.544;2023-02-04T14:26:44;103228.97;;;11.72;66.39
14117;BME280;7137;51.436;6.544;2023-02-04T14:29:47;103234.94;;;11.51;68.08
14117;BME280;7137;51.436;6.544;2023-02-04T14:32:48;103238.25;;;11.21;68.34
14117;BME280;7137;51.436;6.544;2023-02-04T14:35:50;103235.53;;;11.06;68.62
14117;BME280;7137;51.436;6.544;2023-02-04T14:38:53;103232.13;;;11.18;69.51
14117;BME280;7137;51.436;6.544;2023-02-04T14:41:56;103225.00;;;10.95;70.16
14117;BME280;7137;51.436;6.544;2023-02-04T14:44:57;103231.19;;;11.11;69.35
14117;BME280;7137;51.436;6.544;2023-02-04T14:47:59;103237.44;;;11.27;68.81
14117;BME280;7137;51.436;6.544;2023-02-04T14:51:00;103240.84;;;11.15;68.88
14117;BME280;7137;51.436;6.544;2023-02-04T14:54:03;103242.41;;;10.95;68.41
14117;BME280;7137;51.436;6.544;2023-02-04T14:57:05;103243.28;;;10.94;67.27
14117;BME280;7137;51.436;6.544;2023-02-04T15:00:11;103239.00;;;11.00;68.71
14117;BME280;7137;51.436;6.544;2023-02-04T15:03:13;103233.78;;;11.02;67.40
14117;BME280;7137;51.436;6.544;2023-02-04T15:06:14;103234.63;;;10.98;67.64
14117;BME280;7137;51.436;6.544;2023-02-04T15:09:17;103238.91;;;10.93;69.07
14117;BME280;7137;51.436;6.544;2023-02-04T15:12:19;103237.97;;;10.83;69.39
14117;BME280;7137;51.436;6.544;2023-02-04T15:15:21;103244.16;;;10.91;68.39
14117;BME280;7137;51.436;6.544;2023-02-04T15:18:23;103246.78;;;10.94;68.19
14117;BME280;7137;51.436;6.544;2023-02-04T15:21:25;103245.03;;;10.92;67.96
14117;BME280;7137;51.436;6.544;2023-02-04T15:24:27;103251.25;;;11.11;66.77
14117;BME280;7137;51.436;6.544;2023-02-04T15:27:29;103244.91;;;10.80;68.14
14117;BME280;7137;51.436;6.544;2023-02-04T15:30:31;103255.22;;;10.63;68.38
14117;BME280;7137;51.436;6.544;2023-02-04T15:33:33;103255.91;;;10.44;70.02
14117;BME280;7137;51.436;6.544;2023-02-04T15:36:34;103255.78;;;10.30;70.94
14117;BME280;7137;51.436;6.544;2023-02-04T15:39:37;103249.50;;;10.17;71.28
14117;BME280;7137;51.436;6.544;2023-02-04T15:42:39;103251.16;;;10.10;71.54
14117;BME280;7137;51.436;6.544;2023-02-04T15:45:41;103253.75;;;10.10;72.29
14117;BME280;7137;51.436;6.544;2023-02-04T15:48:43;103259.03;;;10.14;74.35
14117;BME280;7137;51.436;6.544;2023-02-04T15:51:44;103262.56;;;10.17;74.23
14117;BME280;7137;51.436;6.544;2023-02-04T15:54:47;103265.19;;;10.20;73.97
14117;BME280;7137;51.436;6.544;2023-02-04T15:57:49;103274.06;;;10.30;72.79
14117;BME280;7137;51.436;6.544;2023-02-04T16:00:50;103266.38;;;10.45;72.55
14117;BME280;7137;51.436;6.544;2023-02-04T16:03:52;103263.22;;;10.80;69.93
14117;BME280;7137;51.436;6.544;2023-02-04T16:06:55;103268.44;;;10.80;69.82
14117;BME280;7137;51.436;6.544;2023-02-04T16:09:59;103274.56;;;10.83;69.94
14117;BME280;7137;51.436;6.544;2023-02-04T16:13:01;103271.91;;;10.76;70.23
14117;BME280;7137;51.436;6.544;2023-02-04T16:16:03;103278.00;;;10.75;70.79